Terminal Aerodrome Forecast
Issued by NWS

Home | Current Version | Previous Version | Text Only | Print | Product List | Glossary Off
Versions: 1 2 3 4 5 6 7 8 9 10 11 12 13 14

000
FTUS43 KBIS 190500
TAFDIK
TAF
KDIK 190532Z 1906/2006 22005KT P6SM SCT120
     FM191200 25007KT P6SM SCT100
     FM200200 21005KT P6SM SCT100=

USA.gov is the U.S. government's official web portal to all federal, state and local government web resources and services.